Time;durP1;ratioP1;P1;durP2;ratioP2;P2;SDS_P1;SDS_P2;PMS_P1;PMS_P2;Temp;Humidity;BMP_temperature;BMP_pressure;BME280_temperature;BME280_humidity;BME280_pressure;Samples;Min_cycle;Max_cycle;Signal;HPM_P1;HPM_P2
2023/01/31 00:01:13;;;;;;;3.20;1.25;;;7.40;75.10;;;;;;5079621;28;20028;-70
2023/01/31 00:03:40;;;;;;;3.47;1.60;;;7.50;74.80;;;;;;5100681;28;20020;-69
2023/01/31 00:06:28;;;;;;;2.13;1.05;;;7.40;74.90;;;;;;5100302;28;20055;-69
2023/01/31 00:08:55;;;;;;;1.95;0.93;;;7.40;75.30;;;;;;5101967;28;20106;-69
2023/01/31 00:11:23;;;;;;;5.00;1.40;;;7.30;75.20;;;;;;5098164;28;20039;-69
2023/01/31 00:13:49;;;;;;;3.47;0.80;;;7.00;75.90;;;;;;5099706;28;20028;-69
2023/01/31 00:16:16;;;;;;;2.42;0.90;;;7.10;75.40;;;;;;5100453;28;20070;-69
2023/01/31 00:18:43;;;;;;;4.47;1.10;;;6.90;76.40;;;;;;5103537;28;20035;-69
2023/01/31 00:21:29;;;;;;;2.10;0.80;;;7.00;75.30;;;;;;5097107;28;20375;-69
2023/01/31 00:23:56;;;;;;;2.20;0.93;;;7.10;74.90;;;;;;5101143;28;20102;-69
2023/01/31 00:26:24;;;;;;;1.55;0.95;;;6.90;75.70;;;;;;5095870;28;20032;-69
2023/01/31 00:28:51;;;;;;;2.53;0.85;;;6.80;75.20;;;;;;5101141;28;20065;-69
2023/01/31 00:31:19;;;;;;;1.45;0.60;;;7.10;75.20;;;;;;5096789;28;20047;-69
2023/01/31 00:33:47;;;;;;;1.63;0.70;;;7.20;74.50;;;;;;5095904;28;20050;-69
2023/01/31 00:36:15;;;;;;;1.95;0.60;;;7.10;74.30;;;;;;5106110;28;20052;-69
2023/01/31 00:38:44;;;;;;;3.22;0.50;;;7.00;74.70;;;;;;5102432;28;20027;-69
2023/01/31 00:41:10;;;;;;;0.75;0.38;;;6.70;74.90;;;;;;5105484;28;20024;-69
2023/01/31 00:43:36;;;;;;;1.42;0.55;;;6.20;76.60;;;;;;5103539;28;20104;-69
2023/01/31 00:46:03;;;;;;;4.03;0.43;;;5.80;77.80;;;;;;5101795;28;20076;-69
2023/01/31 00:48:29;;;;;;;1.15;0.45;;;6.60;74.00;;;;;;5087998;28;20483;-69
2023/01/31 00:50:54;;;;;;;0.63;0.40;;;7.00;73.30;;;;;;5097894;28;20036;-69
2023/01/31 00:53:24;;;;;;;1.52;0.50;;;6.90;73.40;;;;;;5101950;28;20516;-69
2023/01/31 00:55:51;;;;;;;1.10;0.35;;;6.80;73.70;;;;;;5102894;28;20027;-69
2023/01/31 00:58:17;;;;;;;1.15;0.38;;;6.60;74.40;;;;;;5100929;28;20016;-70
2023/01/31 01:00:43;;;;;;;0.55;0.30;;;6.60;74.00;;;;;;5100159;28;20019;-69
2023/01/31 01:03:09;;;;;;;1.13;0.55;;;6.90;73.80;;;;;;5095875;28;20116;-69
2023/01/31 01:05:34;;;;;;;2.50;0.70;;;7.20;73.20;;;;;;5093139;28;20118;-69
2023/01/31 01:08:00;;;;;;;1.40;0.43;;;7.20;73.10;;;;;;5106007;28;20032;-69
2023/01/31 01:10:26;;;;;;;1.27;0.50;;;7.20;73.30;;;;;;5100712;28;20028;-69
2023/01/31 01:12:51;;;;;;;1.48;0.50;;;7.30;73.10;;;;;;5101505;28;20039;-69
2023/01/31 01:15:17;;;;;;;3.40;0.60;;;6.80;73.70;;;;;;5100036;28;20527;-69
2023/01/31 01:17:43;;;;;;;1.55;0.28;;;6.70;74.10;;;;;;5104430;28;20417;-69
2023/01/31 01:20:09;;;;;;;0.75;0.30;;;6.90;73.40;;;;;;5094559;28;20111;-69
2023/01/31 01:22:35;;;;;;;0.50;0.22;;;6.80;73.80;;;;;;5098513;28;20457;-69
2023/01/31 01:25:01;;;;;;;1.40;0.38;;;6.80;73.80;;;;;;5100697;28;20114;-69
2023/01/31 01:27:27;;;;;;;0.57;0.30;;;6.80;73.90;;;;;;5099297;28;20059;-69
2023/01/31 01:29:53;;;;;;;0.60;0.32;;;6.70;74.20;;;;;;5095553;28;20058;-69
2023/01/31 01:32:19;;;;;;;1.50;0.40;;;6.60;75.00;;;;;;5100417;28;20089;-69
2023/01/31 01:34:44;;;;;;;3.05;1.25;;;6.10;75.80;;;;;;5095399;28;20032;-70
2023/01/31 01:37:18;;;;;;;5.38;2.35;;;6.10;75.60;;;;;;5103413;28;20059;-69
2023/01/31 01:39:46;;;;;;;20.75;11.82;;;5.90;76.80;;;;;;5095772;28;20032;-70
2023/01/31 01:42:20;;;;;;;1.90;0.50;;;5.90;76.20;;;;;;5099111;28;20028;-69
2023/01/31 01:44:48;;;;;;;20.08;10.60;;;6.10;74.60;;;;;;5095213;28;20072;-69
2023/01/31 01:47:26;;;;;;;14.13;6.85;;;6.40;74.40;;;;;;5102320;28;20030;-70
2023/01/31 01:50:12;;;;;;;7.13;3.20;;;6.30;74.60;;;;;;5102530;28;20056;-69
2023/01/31 01:53:03;;;;;;;14.55;8.60;;;6.40;74.40;;;;;;5100799;28;20539;-69
2023/01/31 01:55:32;;;;;;;7.50;4.72;;;6.30;74.40;;;;;;5090344;28;20032;-69
2023/01/31 01:58:13;;;;;;;4.65;0.20;;;6.20;75.00;;;;;;5102057;28;20019;-69
2023/01/31 02:00:38;;;;;;;2.58;0.70;;;5.80;76.20;;;;;;5097615;28;20110;-69
2023/01/31 02:03:07;;;;;;;1.92;0.73;;;5.90;74.70;;;;;;5099579;28;20107;-69
2023/01/31 02:05:38;;;;;;;0.70;0.20;;;5.80;75.30;;;;;;5099544;28;20530;-69
2023/01/31 02:08:04;;;;;;;1.50;0.30;;;5.80;74.90;;;;;;5100707;28;20035;-70
2023/01/31 02:10:49;;;;;;;1.00;0.40;;;6.10;74.10;;;;;;5106258;28;20027;-70
2023/01/31 02:13:15;;;;;;;0.90;0.40;;;6.00;75.20;;;;;;5099203;28;20624;-70
2023/01/31 02:15:41;;;;;;;10.13;6.90;;;5.90;75.20;;;;;;5079755;28;20393;-69
2023/01/31 02:18:08;;;;;;;0.50;0.30;;;6.20;73.70;;;;;;5102376;28;20047;-69
2023/01/31 02:20:52;;;;;;;2.70;0.32;;;6.20;73.20;;;;;;5100721;28;20035;-69
2023/01/31 02:23:32;;;;;;;1.77;0.22;;;6.40;72.70;;;;;;5099967;28;20150;-69
2023/01/31 02:26:42;;;;;;;1.85;0.43;;;6.70;71.90;;;;;;5097961;28;20035;-69
2023/01/31 02:29:38;;;;;;;1.17;0.30;;;6.70;71.90;;;;;;5006932;28;20040;-70
2023/01/31 02:32:22;;;;;;;34.53;20.83;;;5.90;74.00;;;;;;5011124;28;20049;-69
2023/01/31 02:35:21;;;;;;;2.38;1.13;;;6.00;73.30;;;;;;5080031;28;20036;-69
2023/01/31 02:37:53;;;;;;;2.47;0.50;;;5.80;74.10;;;;;;5098173;28;20074;-69
2023/01/31 02:40:40;;;;;;;0.95;0.30;;;5.70;74.60;;;;;;5099702;28;20032;-70
2023/01/31 02:43:28;;;;;;;2.20;0.80;;;5.30;75.50;;;;;;5101181;28;20028;-69
2023/01/31 02:46:08;;;;;;;1.42;0.50;;;5.30;76.00;;;;;;5101272;28;20162;-69
2023/01/31 02:48:50;;;;;;;1.17;0.45;;;5.50;75.20;;;;;;5097147;28;20036;-69
2023/01/31 02:51:21;;;;;;;1.05;0.30;;;5.20;76.00;;;;;;5103437;28;20039;-69
2023/01/31 02:53:54;;;;;;;0.38;0.20;;;4.90;76.90;;;;;;5100917;28;20047;-69
2023/01/31 02:56:25;;;;;;;1.33;0.60;;;4.90;76.40;;;;;;5107027;28;20023;-69
2023/01/31 02:59:18;;;;;;;1.08;0.50;;;4.80;76.60;;;;;;5101014;28;20069;-69
2023/01/31 03:01:49;;;;;;;0.10;0.10;;;4.50;77.80;;;;;;5105903;28;20027;-69
2023/01/31 03:04:15;;;;;;;4.43;0.55;;;4.00;78.80;;;;;;5105295;28;20031;-70
2023/01/31 03:06:58;;;;;;;1.02;0.22;;;4.00;79.10;;;;;;5103000;28;20084;-69
2023/01/31 03:09:35;;;;;;;1.95;0.32;;;4.00;79.00;;;;;;5099233;28;20024;-69
2023/01/31 03:12:42;;;;;;;2.63;0.50;;;4.20;78.10;;;;;;5098733;28;20385;-69
2023/01/31 03:17:30;;;;;;;1.77;0.20;;;4.10;78.60;;;;;;5101425;28;20027;-69
2023/01/31 03:18:28;;;;;;;1.70;0.52;;;4.40;77.20;;;;;;5105739;28;20040;-69
2023/01/31 03:21:18;;;;;;;0.80;0.22;;;3.40;82.00;;;;;;5102348;28;20047;-69
2023/01/31 03:23:47;;;;;;;2.03;0.47;;;3.70;80.00;;;;;;5100343;28;20438;-69
2023/01/31 03:26:14;;;;;;;0.95;0.20;;;4.10;78.50;;;;;;5102118;28;20031;-69
2023/01/31 03:28:41;;;;;;;0.52;0.32;;;4.00;78.40;;;;;;5096580;28;20114;-69
2023/01/31 03:31:38;;;;;;;0.75;0.30;;;4.00;78.80;;;;;;5101647;28;20486;-69
2023/01/31 03:34:07;;;;;;;0.47;0.15;;;4.10;78.10;;;;;;5097841;28;20040;-69
2023/01/31 03:36:39;;;;;;;1.10;0.50;;;4.30;77.40;;;;;;5096493;28;20047;-69
2023/01/31 03:39:23;;;;;;;0.90;0.32;;;4.30;77.40;;;;;;5100558;28;20059;-69
2023/01/31 03:41:58;;;;;;;0.93;0.30;;;4.20;77.30;;;;;;5096922;28;20032;-69
2023/01/31 03:44:36;;;;;;;0.80;0.32;;;4.10;77.60;;;;;;5099606;28;20508;-69
2023/01/31 03:47:21;;;;;;;1.55;0.95;;;4.10;77.50;;;;;;5095226;28;20026;-69
2023/01/31 03:49:48;;;;;;;;;;;3.90;78.40;;;;;;5096077;28;20020;-69
2023/01/31 03:52:22;;;;;;;0.32;0.17;;;3.80;78.40;;;;;;5091791;28;19916;-69
2023/01/31 03:54:53;;;;;;;2.45;0.38;;;3.90;78.20;;;;;;5102686;28;20032;-69
2023/01/31 03:57:29;;;;;;;4.32;0.30;;;4.20;76.90;;;;;;5101654;28;20460;-69
2023/01/31 03:59:58;;;;;;;1.00;0.20;;;4.40;76.40;;;;;;5098237;28;20032;-69
2023/01/31 04:02:35;;;;;;;0.38;0.15;;;4.10;77.20;;;;;;5101714;28;20032;-68
2023/01/31 04:05:11;;;;;;;0.50;0.28;;;4.30;76.30;;;;;;5090061;28;20024;-68
2023/01/31 04:07:38;;;;;;;0.22;0.20;;;4.10;77.00;;;;;;5097556;28;20028;-68
2023/01/31 04:10:14;;;;;;;0.98;0.30;;;4.30;76.40;;;;;;5096158;28;20446;-68
2023/01/31 04:12:40;;;;;;;0.55;0.20;;;4.40;76.10;;;;;;5089138;28;20040;-68
2023/01/31 04:15:07;;;;;;;0.32;0.10;;;4.40;76.10;;;;;;5096715;28;20732;-68
2023/01/31 04:17:33;;;;;;;0.98;0.22;;;4.60;75.70;;;;;;5089487;28;20031;-68
2023/01/31 04:19:59;;;;;;;2.85;0.40;;;4.40;76.20;;;;;;5089521;28;20039;-68
2023/01/31 04:22:25;;;;;;;1.00;0.22;;;4.50;76.10;;;;;;5090597;28;20486;-68
2023/01/31 04:24:50;;;;;;;0.43;0.10;;;4.40;76.90;;;;;;5088421;28;20031;-68
2023/01/31 04:27:16;;;;;;;0.45;0.10;;;4.30;76.70;;;;;;5093965;28;20042;-68
2023/01/31 04:29:42;;;;;;;0.47;0.30;;;4.30;76.60;;;;;;5092276;28;20436;-68
2023/01/31 04:32:08;;;;;;;1.05;0.20;;;4.30;76.80;;;;;;5087643;28;20036;-68
2023/01/31 04:34:33;;;;;;;1.05;0.25;;;4.10;77.30;;;;;;5094156;28;20023;-68
2023/01/31 04:36:59;;;;;;;0.43;0.13;;;4.20;76.70;;;;;;5097359;28;20051;-68
2023/01/31 04:39:25;;;;;;;0.32;0.10;;;4.10;77.00;;;;;;5091688;28;20024;-68
2023/01/31 04:41:50;;;;;;;0.30;0.00;;;3.70;78.80;;;;;;5095015;28;20104;-68
2023/01/31 04:44:16;;;;;;;0.63;0.20;;;3.60;79.10;;;;;;5091708;28;20032;-68
2023/01/31 04:46:42;;;;;;;0.68;0.25;;;3.60;79.10;;;;;;5087517;28;20036;-68
2023/01/31 04:49:08;;;;;;;0.17;0.10;;;3.30;80.30;;;;;;5089893;28;20413;-68
2023/01/31 04:51:33;;;;;;;2.03;0.38;;;3.60;79.10;;;;;;5090339;28;20028;-68
2023/01/31 04:53:59;;;;;;;4.22;0.30;;;3.40;79.30;;;;;;5095975;28;20127;-68
2023/01/31 04:56:25;;;;;;;0.43;0.20;;;3.60;79.20;;;;;;5090848;28;20023;-68
2023/01/31 04:58:51;;;;;;;1.08;0.28;;;3.70;78.50;;;;;;5085483;28;20032;-68
2023/01/31 05:01:16;;;;;;;0.10;0.05;;;3.80;78.00;;;;;;5087827;28;20568;-68
2023/01/31 05:03:42;;;;;;;0.77;0.35;;;3.90;77.90;;;;;;5087164;28;20043;-68
2023/01/31 05:06:08;;;;;;;0.15;0.15;;;3.80;78.30;;;;;;5086406;28;20481;-68
2023/01/31 05:08:34;;;;;;;0.20;0.20;;;4.00;77.60;;;;;;5087006;28;20032;-68
2023/01/31 05:11:01;;;;;;;0.73;0.20;;;4.20;76.70;;;;;;5085334;28;20509;-68
2023/01/31 05:13:28;;;;;;;0.65;0.40;;;3.90;77.80;;;;;;5095420;28;20052;-68
2023/01/31 05:15:56;;;;;;;0.30;0.20;;;3.90;77.80;;;;;;5090020;28;20024;-69
2023/01/31 05:18:25;;;;;;;0.70;0.30;;;4.10;77.30;;;;;;5086843;28;20028;-68
2023/01/31 05:20:51;;;;;;;1.65;0.10;;;4.10;76.90;;;;;;5087412;28;20035;-68
2023/01/31 05:23:17;;;;;;;3.67;1.40;;;4.00;77.60;;;;;;5084890;28;20035;-68
2023/01/31 05:25:44;;;;;;;2.22;0.68;;;3.90;79.40;;;;;;5086917;28;20015;-68
2023/01/31 05:28:10;;;;;;;2.17;0.70;;;3.80;78.50;;;;;;5088101;28;20118;-68
2023/01/31 05:30:36;;;;;;;1.83;0.20;;;3.80;78.70;;;;;;5091571;28;20034;-68
2023/01/31 05:33:02;;;;;;;1.10;0.60;;;3.70;79.10;;;;;;5090769;28;20040;-68
2023/01/31 05:35:27;;;;;;;2.45;0.55;;;3.90;78.40;;;;;;5082631;28;20031;-68
2023/01/31 05:37:54;;;;;;;2.15;1.02;;;4.00;77.60;;;;;;5086806;28;20043;-68
2023/01/31 05:40:20;;;;;;;1.42;0.50;;;3.80;78.20;;;;;;5095003;28;20081;-68
2023/01/31 05:42:52;;;;;;;0.60;0.52;;;4.10;76.60;;;;;;5097108;28;20028;-68
2023/01/31 05:45:18;;;;;;;1.00;0.32;;;3.90;78.80;;;;;;5081164;28;20032;-68
2023/01/31 05:47:46;;;;;;;1.30;0.30;;;3.60;79.20;;;;;;5088098;28;20130;-68
2023/01/31 05:50:12;;;;;;;1.08;0.40;;;3.50;79.20;;;;;;5090327;28;20035;-68
2023/01/31 05:52:37;;;;;;;1.23;0.47;;;3.80;78.10;;;;;;5082487;28;20036;-68
2023/01/31 05:55:03;;;;;;;1.08;0.28;;;3.50;79.30;;;;;;5089036;28;20102;-68
2023/01/31 05:57:29;;;;;;;3.20;1.30;;;3.60;78.70;;;;;;5087685;28;20327;-68
2023/01/31 05:59:54;;;;;;;2.70;1.15;;;3.60;79.60;;;;;;5086983;28;20034;-68
2023/01/31 06:02:20;;;;;;;2.45;1.35;;;3.50;80.30;;;;;;5082955;28;20569;-68
2023/01/31 06:04:46;;;;;;;1.92;0.82;;;3.20;80.40;;;;;;5098002;28;20562;-68
2023/01/31 06:07:11;;;;;;;1.40;0.55;;;3.40;79.90;;;;;;5083867;28;20030;-68
2023/01/31 06:09:39;;;;;;;0.47;0.28;;;3.20;80.40;;;;;;5082655;28;20035;-68
2023/01/31 06:12:05;;;;;;;1.75;0.47;;;3.20;80.10;;;;;;5090971;28;20059;-68
2023/01/31 06:14:31;;;;;;;3.38;0.65;;;3.20;80.10;;;;;;5085823;28;20059;-68
2023/01/31 06:16:57;;;;;;;0.80;0.30;;;3.10;81.50;;;;;;5086860;28;20024;-68
2023/01/31 06:19:24;;;;;;;2.67;0.60;;;3.30;80.40;;;;;;5084103;28;20486;-68
2023/01/31 06:21:50;;;;;;;2.83;0.90;;;3.30;80.10;;;;;;5096080;28;20027;-68
2023/01/31 06:24:16;;;;;;;1.70;0.50;;;3.30;80.50;;;;;;5093676;28;20111;-68
2023/01/31 06:26:41;;;;;;;1.17;0.80;;;3.30;80.30;;;;;;5089934;28;20205;-68
2023/01/31 06:29:08;;;;;;;0.70;0.30;;;3.20;80.60;;;;;;5108592;28;20067;-69
2023/01/31 06:31:34;;;;;;;1.02;0.63;;;3.00;81.10;;;;;;5096296;28;20088;-69
2023/01/31 06:33:59;;;;;;;1.05;0.60;;;3.30;79.60;;;;;;5097189;28;20412;-69
2023/01/31 06:36:25;;;;;;;1.23;0.60;;;3.60;84.70;;;;;;5097127;28;20058;-69
2023/01/31 06:38:51;;;;;;;7.78;0.60;;;3.50;80.20;;;;;;5095510;28;20103;-69
2023/01/31 06:41:18;;;;;;;1.17;0.50;;;3.50;79.30;;;;;;5090688;28;20042;-69
2023/01/31 06:43:44;;;;;;;2.92;0.40;;;3.40;79.30;;;;;;5096507;28;20035;-69
2023/01/31 06:46:10;;;;;;;1.90;0.47;;;3.50;79.10;;;;;;5094182;28;20027;-69
2023/01/31 06:48:35;;;;;;;1.33;0.32;;;3.50;79.60;;;;;;5094520;28;20032;-69
2023/01/31 06:51:01;;;;;;;2.72;0.40;;;3.50;79.40;;;;;;5101727;28;20251;-68
2023/01/31 06:53:27;;;;;;;2.00;0.40;;;3.40;79.50;;;;;;5090245;28;20535;-68
2023/01/31 06:55:52;;;;;;;2.45;0.80;;;3.40;80.40;;;;;;5097679;28;20028;-67
2023/01/31 06:58:18;;;;;;;0.82;0.43;;;3.30;80.40;;;;;;5093240;28;20040;-68
2023/01/31 07:00:44;;;;;;;1.25;0.30;;;3.30;80.10;;;;;;5094882;28;20031;-68
2023/01/31 07:03:09;;;;;;;0.55;0.28;;;3.30;80.10;;;;;;5095839;28;20064;-68
2023/01/31 07:05:35;;;;;;;2.22;0.60;;;3.20;81.00;;;;;;5095803;28;20374;-68
2023/01/31 07:08:00;;;;;;;1.10;0.40;;;3.10;80.50;;;;;;5093397;28;20028;-68
2023/01/31 07:10:26;;;;;;;1.85;0.60;;;3.10;80.80;;;;;;5092480;28;20482;-68
2023/01/31 07:12:52;;;;;;;1.13;0.40;;;3.10;80.70;;;;;;5094987;28;20043;-68
2023/01/31 07:15:17;;;;;;;3.33;0.90;;;3.10;80.90;;;;;;5096321;28;20024;-68
2023/01/31 07:17:43;;;;;;;4.88;1.02;;;3.00;82.50;;;;;;5097724;28;20518;-68
2023/01/31 07:20:10;;;;;;;5.38;1.52;;;2.80;82.70;;;;;;5094021;28;20043;-68
2023/01/31 07:22:35;;;;;;;4.00;1.33;;;2.50;83.50;;;;;;5081020;28;20588;-68
2023/01/31 07:25:01;;;;;;;2.50;0.80;;;2.50;85.80;;;;;;5100480;28;20035;-68
2023/01/31 07:27:26;;;;;;;0.57;0.30;;;2.40;85.30;;;;;;5097195;28;20046;-68
2023/01/31 07:29:52;;;;;;;1.75;0.30;;;2.40;84.30;;;;;;5093416;28;20107;-68
2023/01/31 07:32:18;;;;;;;1.08;0.50;;;2.50;84.40;;;;;;5098167;28;20042;-68
2023/01/31 07:34:43;;;;;;;1.20;0.40;;;2.50;83.30;;;;;;5094055;28;20032;-68
2023/01/31 07:37:09;;;;;;;2.75;0.57;;;2.30;84.50;;;;;;5097642;28;20048;-68
2023/01/31 07:39:35;;;;;;;2.60;1.10;;;2.40;85.10;;;;;;5093789;28;20027;-68
2023/01/31 07:42:00;;;;;;;0.32;0.30;;;2.50;84.30;;;;;;5090978;28;20034;-68
2023/01/31 07:44:26;;;;;;;1.60;0.50;;;2.40;85.90;;;;;;5097609;28;20024;-68
2023/01/31 07:46:53;;;;;;;1.85;0.65;;;2.50;84.10;;;;;;5094491;28;20023;-68
2023/01/31 07:49:19;;;;;;;2.95;0.45;;;2.50;85.40;;;;;;5095685;28;20036;-69
2023/01/31 07:51:45;;;;;;;2.63;0.85;;;2.30;85.70;;;;;;5098153;28;20034;-70
2023/01/31 07:54:11;;;;;;;0.82;0.30;;;2.40;85.10;;;;;;5098768;28;20043;-70
2023/01/31 07:56:37;;;;;;;0.90;0.40;;;2.40;85.00;;;;;;5079643;28;20035;-69
2023/01/31 07:59:03;;;;;;;5.15;0.90;;;2.70;86.00;;;;;;5096181;28;20031;-70
2023/01/31 08:04:14;;;;;;;3.53;1.33;;;2.70;83.30;;;;;;5094175;28;20101;-69
2023/01/31 08:06:42;;;;;;;1.70;0.70;;;2.50;85.00;;;;;;5096571;28;20273;-69
2023/01/31 08:09:07;;;;;;;0.73;0.32;;;2.40;85.20;;;;;;5098869;28;20041;-70
2023/01/31 08:11:33;;;;;;;1.45;0.63;;;2.40;85.00;;;;;;5096581;28;20028;-69
2023/01/31 08:13:58;;;;;;;1.02;0.57;;;2.40;85.30;;;;;;5097703;28;20405;-70
2023/01/31 08:16:24;;;;;;;2.63;0.90;;;2.50;84.60;;;;;;5095119;28;20589;-72
2023/01/31 08:18:51;;;;;;;0.77;0.35;;;2.60;84.20;;;;;;5097798;28;20564;-70
2023/01/31 08:21:18;;;;;;;2.00;0.73;;;2.60;84.50;;;;;;5093307;28;20080;-70
2023/01/31 08:23:44;;;;;;;3.47;0.85;;;2.50;85.50;;;;;;5095025;28;20439;-69
2023/01/31 08:26:18;;;;;;;4.18;0.63;;;2.50;84.90;;;;;;5099849;28;20028;-69
2023/01/31 08:28:45;;;;;;;3.23;0.60;;;2.30;85.90;;;;;;5094424;28;20668;-70
2023/01/31 08:31:20;;;;;;;1.98;0.60;;;2.50;84.90;;;;;;5095814;28;20351;-70
2023/01/31 08:33:46;;;;;;;2.47;0.70;;;2.60;84.20;;;;;;5097499;28;20147;-70
2023/01/31 08:36:19;;;;;;;1.77;1.10;;;3.00;83.00;;;;;;5095354;28;20074;-70
2023/01/31 08:38:46;;;;;;;2.00;0.95;;;3.20;87.00;;;;;;5094341;28;20077;-70
2023/01/31 08:41:13;;;;;;;1.52;0.50;;;2.80;85.50;;;;;;5093619;28;20500;-69
2023/01/31 08:43:39;;;;;;;3.60;1.30;;;2.90;83.70;;;;;;5095641;28;20035;-70
2023/01/31 08:46:05;;;;;;;3.72;1.50;;;3.20;92.10;;;;;;5083199;28;20488;-70
2023/01/31 08:48:35;;;;;;;2.03;0.80;;;3.20;83.50;;;;;;5096473;28;20034;-71
2023/01/31 08:51:06;;;;;;;4.25;1.27;;;3.30;82.30;;;;;;5094159;28;20111;-69
2023/01/31 08:53:32;;;;;;;0.93;0.47;;;3.10;82.90;;;;;;5093292;28;20553;-69
2023/01/31 08:56:04;;;;;;;3.08;0.90;;;3.10;83.10;;;;;;5099413;28;20035;-69
2023/01/31 08:58:34;;;;;;;4.97;3.40;;;3.20;82.40;;;;;;5096406;28;20030;-69
2023/01/31 09:01:09;;;;;;;2.60;1.33;;;3.10;83.40;;;;;;5091894;28;20114;-69
2023/01/31 09:03:34;;;;;;;1.67;0.93;;;3.10;82.60;;;;;;5092736;28;20039;-69
2023/01/31 09:06:05;;;;;;;3.13;1.40;;;3.10;82.40;;;;;;5103662;28;20024;-69
2023/01/31 09:08:31;;;;;;;5.22;3.20;;;3.10;84.40;;;;;;5100152;28;20076;-70
2023/01/31 09:10:59;;;;;;;5.20;1.30;;;2.90;84.50;;;;;;5091752;28;20063;-71
2023/01/31 09:13:25;;;;;;;3.47;1.20;;;2.90;83.60;;;;;;5094883;28;20477;-70
2023/01/31 09:16:03;;;;;;;2.17;0.82;;;3.00;83.30;;;;;;5091386;28;20393;-68
2023/01/31 09:18:29;;;;;;;2.55;0.90;;;3.10;82.70;;;;;;5099290;28;20485;-69
2023/01/31 09:20:55;;;;;;;1.60;0.75;;;3.10;81.90;;;;;;5099928;28;20076;-69
2023/01/31 09:23:22;;;;;;;14.27;1.50;;;3.10;82.10;;;;;;5098160;28;20057;-69
2023/01/31 09:25:55;;;;;;;1.48;0.43;;;3.30;84.10;;;;;;5090724;28;20409;-69
2023/01/31 09:28:22;;;;;;;1.20;0.50;;;3.40;81.00;;;;;;5097748;28;20032;-69
2023/01/31 09:30:48;;;;;;;1.95;0.80;;;3.90;83.20;;;;;;5095980;28;20027;-69
2023/01/31 09:33:13;;;;;;;2.38;0.80;;;3.80;79.90;;;;;;5095972;28;20039;-69
2023/01/31 09:35:39;;;;;;;3.00;1.38;;;3.60;82.20;;;;;;5094008;28;20032;-71
2023/01/31 09:38:05;;;;;;;2.05;1.40;;;3.40;81.50;;;;;;5091234;28;20054;-69
2023/01/31 09:40:34;;;;;;;2.38;1.20;;;3.40;81.60;;;;;;5091217;28;20052;-71
2023/01/31 09:43:02;;;;;;;2.45;1.10;;;3.40;81.90;;;;;;5100646;28;20028;-69
2023/01/31 09:45:34;;;;;;;75.35;37.20;;;3.40;82.00;;;;;;5092437;28;20118;-69
2023/01/31 09:48:01;;;;;;;26.17;13.82;;;3.30;83.20;;;;;;5088651;28;20036;-70
2023/01/31 09:50:33;;;;;;;105.05;49.13;;;3.30;83.70;;;;;;5094424;28;20039;-70
2023/01/31 09:52:59;;;;;;;101.95;77.20;;;3.30;83.20;;;;;;5091678;28;20035;-69
2023/01/31 09:55:31;;;;;;;67.35;51.00;;;3.20;84.00;;;;;;5090089;28;20471;-70
2023/01/31 09:58:20;;;;;;;48.65;35.17;;;3.20;83.70;;;;;;5097747;28;20028;-70
2023/01/31 10:01:10;;;;;;;10.20;8.52;;;3.20;83.60;;;;;;5086645;28;20142;-70
2023/01/31 10:04:03;;;;;;;14.35;10.65;;;3.20;82.60;;;;;;5096048;28;20028;-70
2023/01/31 10:06:35;;;;;;;10.20;6.95;;;3.30;82.50;;;;;;5093001;28;20060;-70
2023/01/31 10:09:32;;;;;;;6.95;3.33;;;3.30;82.80;;;;;;5095207;28;20083;-69
2023/01/31 10:12:07;;;;;;;5.10;2.22;;;3.40;83.10;;;;;;5095796;28;20041;-70
2023/01/31 10:14:33;;;;;;;3.65;1.80;;;3.60;83.30;;;;;;5090941;28;20028;-69
2023/01/31 10:17:35;;;;;;;5.63;1.83;;;3.70;83.50;;;;;;5095004;28;20040;-69
2023/01/31 10:20:20;;;;;;;7.20;3.67;;;3.90;83.50;;;;;;5067652;28;20047;-70
2023/01/31 10:22:59;;;;;;;6.53;3.47;;;4.20;80.90;;;;;;5095572;28;20031;-70
2023/01/31 10:25:37;;;;;;;4.70;2.20;;;4.40;81.30;;;;;;5089378;28;20076;-69
2023/01/31 10:28:27;;;;;;;4.35;2.58;;;4.40;81.80;;;;;;5089288;28;20035;-69
2023/01/31 10:31:17;;;;;;;8.80;4.07;;;4.60;81.30;;;;;;5096438;28;20028;-69
2023/01/31 10:33:59;;;;;;;5.90;3.17;;;4.70;82.00;;;;;;5089463;28;20412;-70
2023/01/31 10:36:43;;;;;;;15.38;9.20;;;4.80;82.50;;;;;;5096137;28;20510;-69
2023/01/31 10:39:31;;;;;;;10.07;6.13;;;4.80;82.00;;;;;;5093880;28;20032;-69
2023/01/31 10:42:14;;;;;;;4.63;2.28;;;4.90;82.50;;;;;;5092981;28;20028;-69
2023/01/31 10:44:57;;;;;;;3.80;1.52;;;5.00;82.70;;;;;;5092019;28;20031;-69
2023/01/31 10:47:37;;;;;;;5.38;1.90;;;5.00;82.10;;;;;;5099707;28;20043;-69
2023/01/31 10:50:17;;;;;;;4.68;2.03;;;5.00;81.70;;;;;;5093883;28;20036;-70
2023/01/31 10:53:00;;;;;;;6.93;2.00;;;5.10;81.80;;;;;;5094613;28;20095;-70
2023/01/31 10:55:48;;;;;;;4.38;2.90;;;5.30;82.10;;;;;;5093549;28;20028;-70
2023/01/31 10:58:16;;;;;;;4.65;3.42;;;5.50;82.70;;;;;;5089900;28;20408;-70
2023/01/31 11:00:42;;;;;;;4.55;2.30;;;5.60;82.20;;;;;;5093974;28;20054;-70
2023/01/31 11:03:11;;;;;;;4.65;2.10;;;5.60;81.90;;;;;;5093481;28;20031;-69
2023/01/31 11:05:55;;;;;;;5.00;1.70;;;5.70;82.00;;;;;;5087305;28;20034;-70
2023/01/31 11:08:30;;;;;;;27.83;16.43;;;5.70;82.00;;;;;;5089437;28;20035;-70
2023/01/31 11:10:57;;;;;;;11.00;6.60;;;5.80;82.90;;;;;;5091560;28;20031;-70
2023/01/31 11:13:23;;;;;;;12.70;5.10;;;6.00;82.30;;;;;;5093131;28;20032;-70
2023/01/31 11:15:52;;;;;;;6.13;3.53;;;6.00;82.40;;;;;;5087523;28;20055;-70
2023/01/31 11:18:23;;;;;;;6.82;2.88;;;6.10;82.80;;;;;;5094007;28;20091;-70
2023/01/31 11:20:49;;;;;;;7.63;2.67;;;6.20;83.10;;;;;;5093224;28;20366;-70
2023/01/31 11:23:22;;;;;;;4.72;2.22;;;6.20;81.50;;;;;;5099645;28;20040;-69
2023/01/31 11:25:50;;;;;;;6.22;2.28;;;6.50;81.90;;;;;;5104155;27;20028;-69
2023/01/31 11:28:24;;;;;;;5.32;3.33;;;6.50;82.70;;;;;;5091315;28;20024;-69
2023/01/31 11:30:53;;;;;;;5.28;2.55;;;6.80;81.60;;;;;;5093364;28;20049;-69
2023/01/31 11:33:43;;;;;;;3.75;1.80;;;6.80;81.20;;;;;;5090039;28;20689;-69
2023/01/31 11:36:21;;;;;;;4.68;2.20;;;6.90;81.30;;;;;;5085861;28;20580;-69
2023/01/31 11:38:48;;;;;;;6.35;3.05;;;6.90;80.30;;;;;;5097456;28;20022;-69
2023/01/31 11:41:36;;;;;;;6.22;2.70;;;6.90;79.80;;;;;;5094514;28;20489;-70
2023/01/31 11:44:07;;;;;;;6.28;3.13;;;7.00;80.20;;;;;;5093238;28;20026;-69
2023/01/31 11:46:58;;;;;;;5.38;2.72;;;7.10;81.20;;;;;;5097045;28;20110;-69
2023/01/31 11:49:40;;;;;;;6.55;3.15;;;7.30;80.10;;;;;;5099014;28;20035;-69
2023/01/31 11:52:20;;;;;;;6.82;3.05;;;7.80;80.40;;;;;;5091578;28;20551;-69
2023/01/31 11:54:50;;;;;;;14.43;4.10;;;7.60;79.00;;;;;;5096458;28;20107;-69
2023/01/31 11:57:29;;;;;;;6.63;3.03;;;7.70;80.40;;;;;;5098229;28;20028;-69
2023/01/31 11:59:57;;;;;;;6.25;3.00;;;7.70;79.40;;;;;;5095059;28;20035;-70
2023/01/31 12:02:39;;;;;;;5.70;2.85;;;7.80;79.60;;;;;;5090569;28;20040;-69
2023/01/31 12:05:34;;;;;;;6.13;2.97;;;8.00;79.10;;;;;;5094660;28;20023;-69
2023/01/31 12:08:00;;;;;;;;;;;8.00;78.50;;;;;;5096764;28;20032;-69
2023/01/31 12:10:44;;;;;;;4.30;2.28;;;8.20;77.90;;;;;;5102765;28;20016;-69
2023/01/31 12:13:15;;;;;;;7.75;2.42;;;8.40;77.70;;;;;;5091422;28;20126;-70
2023/01/31 12:16:05;;;;;;;5.47;2.35;;;8.30;78.00;;;;;;5087801;28;20023;-70
2023/01/31 12:18:37;;;;;;;4.85;2.42;;;8.40;76.40;;;;;;5082174;28;20036;-69
2023/01/31 12:21:15;;;;;;;10.82;3.17;;;8.40;76.70;;;;;;5093984;28;20156;-70
2023/01/31 12:23:53;;;;;;;5.57;2.50;;;8.50;77.80;;;;;;5094681;28;20027;-70
2023/01/31 12:26:35;;;;;;;6.07;2.40;;;8.60;76.90;;;;;;5101786;28;20020;-69
2023/01/31 12:29:01;;;;;;;7.00;2.95;;;8.40;76.80;;;;;;5092671;28;20028;-70
2023/01/31 12:31:52;;;;;;;8.68;3.90;;;8.40;78.00;;;;;;5086934;28;20115;-70
2023/01/31 12:34:24;;;;;;;6.22;3.53;;;8.60;77.30;;;;;;5086592;28;20083;-70
2023/01/31 12:37:01;;;;;;;4.68;2.53;;;8.80;77.30;;;;;;5087694;28;20040;-69
2023/01/31 12:39:46;;;;;;;4.65;2.30;;;8.70;76.90;;;;;;5085887;28;20035;-70
2023/01/31 12:42:40;;;;;;;5.90;2.80;;;9.00;78.50;;;;;;5086156;28;20133;-70
2023/01/31 12:45:25;;;;;;;8.25;3.10;;;9.10;77.70;;;;;;5086521;28;20031;-70
2023/01/31 12:48:09;;;;;;;6.47;2.67;;;9.10;76.60;;;;;;5085309;28;20035;-70
2023/01/31 12:50:39;;;;;;;4.87;2.47;;;9.10;75.90;;;;;;5085463;28;20073;-70
2023/01/31 12:53:15;;;;;;;6.70;3.13;;;9.00;76.40;;;;;;5092999;28;20312;-70
2023/01/31 12:55:55;;;;;;;6.15;2.85;;;9.10;76.60;;;;;;5084929;28;20032;-70
2023/01/31 12:58:54;;;;;;;5.90;3.03;;;9.10;74.80;;;;;;5088192;28;20051;-70
2023/01/31 13:01:56;;;;;;;9.82;2.95;;;9.00;74.60;;;;;;5085582;28;20119;-70
2023/01/31 13:04:49;;;;;;;5.28;2.70;;;9.30;74.90;;;;;;5093856;28;20031;-70
2023/01/31 13:07:23;;;;;;;5.63;2.35;;;9.30;76.40;;;;;;5085836;28;20126;-70
2023/01/31 13:09:51;;;;;;;4.97;2.28;;;9.40;74.80;;;;;;5087116;28;20108;-70
2023/01/31 13:12:21;;;;;;;6.45;2.30;;;9.30;75.80;;;;;;5084575;28;20055;-70
2023/01/31 13:15:07;;;;;;;4.20;1.80;;;9.40;74.70;;;;;;5089653;28;20027;-70
2023/01/31 13:17:36;;;;;;;5.05;2.45;;;9.40;75.50;;;;;;5082407;28;20092;-70
2023/01/31 13:20:13;;;;;;;5.93;1.75;;;9.40;75.50;;;;;;5081781;28;20020;-70
2023/01/31 13:22:45;;;;;;;3.80;1.65;;;9.40;74.50;;;;;;5085539;28;20501;-70